Manchester, WA (98353)

11:57 AM PDT on October 23, 2014 (GMT -0700)
Yukon Harbor | Change Station
CLOSE
Current Station
Personal Weather Station
Location: Port Orchard, WA
Elevation: 92 ft
Nearby Weather Stations

Elev 92 ft 47.52 °N, 122.55 °W | Updated 0 second ago

Mostly Cloudy
Mostly Cloudy
56.3 °F
Feels Like 56.3 °F
N
1.8
Wind Variable Wind from SSE
Gusts 8.1 mph

Today
High -- | Low -- °F
--% Chance of Precip.
Yesterday
High -- | Low -- °F
Precip. -- in
7:40 AM 6:07 PM
Waning Crescent, 0% visible
Pressure 29.79 in
Visibility 10.0 miles
Clouds Few 3400 ft
Mostly Cloudy 4500 ft
Mostly Cloudy 6000 ft
Dew Point 53 °F
Humidity 88%
Rainfall 0.11 in
Snow Depth Not available.
UV 1 out of 12
Pollen .40 out of 12
Air Quality Not available.
Flu Activity Sporadic
METAR KBFI 231753Z 15009KT 10SM -RA FEW034 BKN045 BKN060 13/09 A2979 RMK AO2 SLP086 P0002 60011 T01280089 10133 20117 51016

More Conditions Fewer Conditions

Pressure 29.79 in
Visibility 10.0 miles
Clouds Few 3400 ft
Mostly Cloudy 4500 ft
Mostly Cloudy 6000 ft
Dew Point 53 °F
Humidity 88%
Rainfall 0.11 in
Snow Depth Not available.
UV 1 out of 12
Pollen .40 out of 12
Air Quality Not available.
Flu Activity Sporadic
METAR KBFI 231753Z 15009KT 10SM -RA FEW034 BKN045 BKN060 13/09 A2979 RMK AO2 SLP086 P0002 60011 T01280089 10133 20117 51016

More Conditions Fewer Conditions

10-Day Weather Forecast

Almanac

Astronomy

Oct. 23, 2014 Rise Set
Actual Time 7:40 AM PDT 6:07 PM PDT
Civil Twilight 7:09 AM PDT 6:38 PM PDT
Nautical Twilight 6:33 AM PDT 7:14 PM PDT
Astronomical Twilight 5:57 AM PDT 7:50 PM PDT
Moon 7:24 AM PDT 6:11 PM PDT
Length of Visible Light 11h 29m
Length of Day
10h 26m
Tomorrow will be 3m 13s shorter.
Waning Crescent, 0% of the Moon is Illuminated
Today
Waning Crescent
Oct 23
New
Oct 30
First Quarter
Nov 6
Full
Nov 14
Last Quarter

Today's Extremes

State Highs State Lows

Community

WunderPhotos

Upload Photos

1,764,339 photos uploaded!

WunderBlogs® & News

By Dr. Jeff Masters
Director of Meteorology, Weather Underground
By Kari Strenfel
Meteorologist, Weather Underground
By Christopher C. Burt
Weather Historian, Weather Underground
October 23, 2014
October 23, 2014
October 23, 2014

Nearby

Snow Depth

Station Depth Elevation
Dungeness 0 in 4100 ft
Alpine Meadows 0 in 3500 ft
Skookum Creek 0 in 3920 ft
Mount Gardner 0 in 3000 ft
Burnt Mountain 0 in 4200 ft

Earthquake Activity

City Distance Mag. Time & Date
No recent earthquake activity has been reported nearby.
Minimum magnitude displayed is 2.5.

Coastal Water Temperatures

Place Temperature
Port Townsend, WA 52.0 °F
Seattle, WA 55.0 °F
Friday Harbor, WA 51.1 °F
Tacoma, WA 54.0 °F

Nearby Weather Stations